createdAt,value
2023-05-06T00:01:36.577Z,13.11
2023-05-06T00:04:03.564Z,13.20
2023-05-06T00:06:30.374Z,13.13
2023-05-06T00:08:57.053Z,13.22
2023-05-06T00:11:23.802Z,13.16
2023-05-06T00:13:50.525Z,13.24
2023-05-06T00:16:17.271Z,13.37
2023-05-06T00:18:44.203Z,13.34
2023-05-06T00:21:11.653Z,13.23
2023-05-06T00:23:38.370Z,13.08
2023-05-06T00:26:05.421Z,13.10
2023-05-06T00:28:32.140Z,13.09
2023-05-06T00:30:58.905Z,13.03
2023-05-06T00:33:26.861Z,13.08
2023-05-06T00:35:53.549Z,13.04
2023-05-06T00:38:20.280Z,12.95
2023-05-06T00:40:47.004Z,12.94
2023-05-06T00:43:13.871Z,13.06
2023-05-06T00:45:40.662Z,12.96
2023-05-06T00:48:08.157Z,12.95
2023-05-06T00:50:35.862Z,12.85
2023-05-06T00:53:04.500Z,12.76
2023-05-06T00:55:32.940Z,12.73
2023-05-06T00:57:59.857Z,12.73
2023-05-06T01:00:26.906Z,12.56
2023-05-06T01:02:53.990Z,12.48
2023-05-06T01:05:24.065Z,12.38
2023-05-06T01:08:04.554Z,12.35
2023-05-06T01:10:42.432Z,12.41
2023-05-06T01:13:24.944Z,12.51
2023-05-06T01:15:55.196Z,12.55
2023-05-06T01:18:23.494Z,12.54
2023-05-06T01:20:52.900Z,12.52
2023-05-06T01:23:20.360Z,12.36
2023-05-06T01:25:47.117Z,12.34
2023-05-06T01:28:14.293Z,12.23
2023-05-06T01:30:57.987Z,12.19
2023-05-06T01:33:35.817Z,12.13
2023-05-06T01:36:19.044Z,12.08
2023-05-06T01:39:00.134Z,12.01
2023-05-06T01:41:28.069Z,12.03
2023-05-06T01:43:55.611Z,11.88
2023-05-06T01:46:23.864Z,11.79
2023-05-06T01:48:55.289Z,11.81
2023-05-06T01:51:23.417Z,11.81
2023-05-06T01:53:50.354Z,11.77
2023-05-06T01:56:17.725Z,11.79
2023-05-06T01:58:44.403Z,11.80
2023-05-06T02:01:11.073Z,11.72
2023-05-06T02:03:37.868Z,11.69
2023-05-06T02:06:04.947Z,11.60
2023-05-06T02:08:36.184Z,11.51
2023-05-06T02:11:04.087Z,11.46
2023-05-06T02:13:31.630Z,11.47
2023-05-06T02:15:58.366Z,11.49
2023-05-06T02:18:25.582Z,11.50
2023-05-06T02:20:52.295Z,11.46
2023-05-06T02:23:18.985Z,11.24
2023-05-06T02:25:46.679Z,11.19
2023-05-06T02:28:13.368Z,11.25
2023-05-06T02:30:40.010Z,11.33
2023-05-06T02:33:06.810Z,11.30
2023-05-06T02:35:33.725Z,11.32
2023-05-06T02:38:01.038Z,11.42
2023-05-06T02:40:27.820Z,11.49
2023-05-06T02:42:54.732Z,11.49
2023-05-06T02:45:21.564Z,11.29
2023-05-06T02:47:48.240Z,11.06
2023-05-06T02:50:14.917Z,11.04
2023-05-06T02:52:41.714Z,11.04
2023-05-06T02:55:08.966Z,11.04
2023-05-06T02:57:35.901Z,11.07
2023-05-06T03:00:02.606Z,10.96
2023-05-06T03:02:29.351Z,11.01
2023-05-06T03:04:56.152Z,10.94
2023-05-06T03:07:23.084Z,10.96
2023-05-06T03:09:50.056Z,10.77
2023-05-06T03:12:16.750Z,10.79
2023-05-06T03:14:43.430Z,10.72
2023-05-06T03:17:11.211Z,10.63
2023-05-06T03:19:37.960Z,10.63
2023-05-06T03:22:06.756Z,10.67
2023-05-06T03:24:35.834Z,10.67
2023-05-06T03:27:05.088Z,10.70
2023-05-06T03:29:32.288Z,10.61
2023-05-06T03:32:04.204Z,10.65
2023-05-06T03:34:34.473Z,10.68
2023-05-06T03:37:01.278Z,10.74
2023-05-06T03:39:28.962Z,10.78
2023-05-06T03:41:57.734Z,10.81
2023-05-06T03:44:25.124Z,10.78
2023-05-06T03:46:51.816Z,10.90
2023-05-06T03:49:20.771Z,10.91
2023-05-06T03:51:48.541Z,10.92
2023-05-06T03:54:17.015Z,11.02
2023-05-06T03:56:43.974Z,11.01
2023-05-06T03:59:11.002Z,10.98
2023-05-06T04:01:37.746Z,10.97
2023-05-06T04:04:04.977Z,10.74
2023-05-06T04:06:32.193Z,10.61
2023-05-06T04:08:58.881Z,10.58
2023-05-06T04:11:26.671Z,10.61
2023-05-06T04:13:54.731Z,10.61
2023-05-06T04:16:23.337Z,10.63
2023-05-06T04:18:51.823Z,10.67
2023-05-06T04:21:18.920Z,10.73
2023-05-06T04:23:52.495Z,10.75
2023-05-06T04:26:23.405Z,10.77
2023-05-06T04:28:50.231Z,10.80
2023-05-06T04:31:17.436Z,10.83
2023-05-06T04:33:46.582Z,10.78
2023-05-06T04:36:21.813Z,10.79
2023-05-06T04:39:09.046Z,10.83
2023-05-06T04:41:36.909Z,10.93
2023-05-06T04:44:04.971Z,10.99
2023-05-06T04:46:31.686Z,11.05
2023-05-06T04:48:58.688Z,11.04
2023-05-06T04:51:26.950Z,11.11
2023-05-06T04:53:54.019Z,11.15
2023-05-06T04:56:21.327Z,11.08
2023-05-06T04:58:49.534Z,11.16
2023-05-06T05:01:16.373Z,11.28
2023-05-06T05:03:43.191Z,11.32
2023-05-06T05:06:10.242Z,11.38
2023-05-06T05:08:37.054Z,11.39
2023-05-06T05:11:06.402Z,11.43
2023-05-06T05:13:34.705Z,11.39
2023-05-06T05:16:02.359Z,11.48
2023-05-06T05:18:31.749Z,11.64
2023-05-06T05:21:04.862Z,11.56
2023-05-06T05:23:33.057Z,11.64
2023-05-06T05:26:00.154Z,11.63
2023-05-06T05:28:27.252Z,11.72
2023-05-06T05:30:55.528Z,11.82
2023-05-06T05:33:22.414Z,11.89
2023-05-06T05:35:49.795Z,12.08
2023-05-06T05:38:16.758Z,12.20
2023-05-06T05:40:44.208Z,12.39
2023-05-06T05:43:11.463Z,12.43
2023-05-06T05:45:40.820Z,12.47
2023-05-06T05:48:09.107Z,12.47
2023-05-06T05:50:36.521Z,12.56
2023-05-06T05:53:03.189Z,12.66
2023-05-06T05:55:30.835Z,12.62
2023-05-06T05:57:57.796Z,12.64
2023-05-06T06:00:30.829Z,12.77
2023-05-06T06:03:05.147Z,13.04
2023-05-06T06:05:32.116Z,13.29
2023-05-06T06:07:59.561Z,13.26
2023-05-06T06:10:27.617Z,13.31
2023-05-06T06:12:54.896Z,13.34
2023-05-06T06:15:25.576Z,13.35
2023-05-06T06:17:55.069Z,13.36
2023-05-06T06:20:22.871Z,13.49
2023-05-06T06:22:49.626Z,13.65
2023-05-06T06:25:16.702Z,13.54
2023-05-06T06:27:43.422Z,13.51
2023-05-06T06:30:11.117Z,13.47
2023-05-06T06:32:47.776Z,13.27
2023-05-06T06:35:14.589Z,13.32
2023-05-06T06:37:41.609Z,13.75
2023-05-06T06:40:10.412Z,13.74
2023-05-06T06:42:37.883Z,14.66
2023-05-06T06:45:19.242Z,14.38
2023-05-06T06:47:45.977Z,14.22
2023-05-06T06:50:12.747Z,14.87
2023-05-06T06:52:39.476Z,14.81
2023-05-06T06:55:06.700Z,15.08
2023-05-06T06:57:33.387Z,14.70
2023-05-06T07:00:00.143Z,15.73
2023-05-06T07:02:26.828Z,16.05
2023-05-06T07:04:54.244Z,15.40
2023-05-06T07:07:20.985Z,15.11
2023-05-06T07:09:47.732Z,15.51
2023-05-06T07:12:14.410Z,16.71
2023-05-06T07:14:41.693Z,16.91
2023-05-06T07:17:08.431Z,16.99
2023-05-06T07:19:35.103Z,16.22
2023-05-06T07:22:03.133Z,17.54
2023-05-06T07:24:29.912Z,16.50
2023-05-06T07:26:56.836Z,17.32
2023-05-06T07:29:23.659Z,17.18
2023-05-06T07:31:50.657Z,17.29
2023-05-06T07:34:17.350Z,16.82
2023-05-06T07:36:45.273Z,16.40
2023-05-06T07:39:12.645Z,16.80
2023-05-06T07:41:39.698Z,17.21
2023-05-06T07:44:06.965Z,17.43
2023-05-06T07:46:34.096Z,17.26
2023-05-06T07:49:00.902Z,17.49
2023-05-06T07:51:28.340Z,17.54
2023-05-06T07:53:55.052Z,18.51
2023-05-06T07:56:21.747Z,18.62
2023-05-06T07:58:49.568Z,17.98
2023-05-06T08:01:16.607Z,18.86
2023-05-06T08:03:44.129Z,18.87
2023-05-06T08:06:11.068Z,19.20
2023-05-06T08:08:40.745Z,20.67
2023-05-06T08:11:07.471Z,19.97
2023-05-06T08:13:34.222Z,20.69
2023-05-06T08:16:02.721Z,20.90
2023-05-06T08:18:30.086Z,19.50
2023-05-06T08:20:56.983Z,18.55
2023-05-06T08:23:23.821Z,19.42
2023-05-06T08:25:50.545Z,18.57
2023-05-06T08:28:17.175Z,20.22
2023-05-06T08:30:46.416Z,20.10
2023-05-06T08:33:13.229Z,20.68
2023-05-06T08:35:39.935Z,19.75
2023-05-06T08:38:06.648Z,20.11
2023-05-06T08:40:33.908Z,21.53
2023-05-06T08:43:04.160Z,22.08
2023-05-06T08:45:30.970Z,21.54
2023-05-06T08:47:57.948Z,21.00
2023-05-06T08:50:25.728Z,21.36
2023-05-06T08:52:52.805Z,20.63
2023-05-06T08:55:19.787Z,19.33
2023-05-06T08:57:47.459Z,20.04
2023-05-06T09:00:15.413Z,20.94
2023-05-06T09:02:43.411Z,21.42
2023-05-06T09:05:11.756Z,19.38
2023-05-06T09:07:38.627Z,20.22
2023-05-06T09:10:07.591Z,20.47
2023-05-06T09:12:36.984Z,20.94
2023-05-06T09:15:04.045Z,20.43
2023-05-06T09:17:32.881Z,20.17
2023-05-06T09:19:59.681Z,20.09
2023-05-06T09:22:28.625Z,19.02
2023-05-06T09:24:57.145Z,20.36
2023-05-06T09:27:34.204Z,20.43
2023-05-06T09:30:09.435Z,20.73
2023-05-06T09:32:39.132Z,20.44
2023-05-06T09:35:07.471Z,20.85
2023-05-06T09:37:34.197Z,21.33
2023-05-06T09:40:01.337Z,21.14
2023-05-06T09:42:31.206Z,21.05
2023-05-06T09:45:01.977Z,21.18
2023-05-06T09:47:34.846Z,20.84
2023-05-06T09:50:02.968Z,20.68
2023-05-06T09:52:30.437Z,20.45
2023-05-06T09:54:57.845Z,20.32
2023-05-06T09:57:24.700Z,20.79
2023-05-06T09:59:54.904Z,20.60
2023-05-06T10:02:23.282Z,21.68
2023-05-06T10:04:51.172Z,20.52
2023-05-06T10:07:22.961Z,21.32
2023-05-06T10:09:51.565Z,19.98
2023-05-06T10:12:19.619Z,21.25
2023-05-06T10:14:46.692Z,21.32
2023-05-06T10:17:14.128Z,21.81
2023-05-06T10:19:45.000Z,21.69
2023-05-06T10:22:41.994Z,21.25
2023-05-06T10:25:23.372Z,20.62
2023-05-06T10:27:50.838Z,20.14
2023-05-06T10:30:19.302Z,22.65
2023-05-06T10:32:46.412Z,22.54
2023-05-06T10:35:19.195Z,22.60
2023-05-06T10:37:49.195Z,23.27
2023-05-06T10:40:16.473Z,22.07
2023-05-06T10:42:43.238Z,22.66
2023-05-06T10:45:10.989Z,21.46
2023-05-06T10:47:52.940Z,22.30
2023-05-06T10:50:24.813Z,21.66
2023-05-06T10:52:56.461Z,22.66
2023-05-06T10:55:31.500Z,22.90
2023-05-06T10:58:03.587Z,23.74
2023-05-06T11:00:34.847Z,22.53
2023-05-06T11:03:10.099Z,22.62
2023-05-06T11:05:52.858Z,24.48
2023-05-06T11:08:24.686Z,24.74
2023-05-06T11:10:52.060Z,23.82
2023-05-06T11:13:26.648Z,23.42
2023-05-06T11:15:55.272Z,23.75
2023-05-06T11:18:24.926Z,22.56
2023-05-06T11:21:02.705Z,22.83
2023-05-06T11:23:42.152Z,22.11
2023-05-06T11:26:12.786Z,23.29
2023-05-06T11:28:43.082Z,24.75
2023-05-06T11:31:10.224Z,25.51
2023-05-06T11:33:37.688Z,23.50
2023-05-06T11:36:05.296Z,22.21
2023-05-06T11:38:46.754Z,21.51
2023-05-06T11:41:14.236Z,21.25
2023-05-06T11:43:46.680Z,21.93
2023-05-06T11:46:13.448Z,22.83
2023-05-06T11:48:40.143Z,23.03
2023-05-06T11:51:08.342Z,23.03
2023-05-06T11:53:35.099Z,23.45
2023-05-06T11:56:02.163Z,22.63
2023-05-06T11:58:29.528Z,23.62
2023-05-06T12:00:58.440Z,24.09
2023-05-06T12:03:26.979Z,22.11
2023-05-06T12:05:53.941Z,22.42
2023-05-06T12:08:27.807Z,22.38
2023-05-06T12:10:58.718Z,24.17
2023-05-06T12:13:25.944Z,24.50
2023-05-06T12:15:54.757Z,22.98
2023-05-06T12:18:22.387Z,23.47
2023-05-06T12:20:49.153Z,23.54
2023-05-06T12:23:16.334Z,23.92
2023-05-06T12:25:44.947Z,23.82
2023-05-06T12:28:19.519Z,24.08
2023-05-06T12:30:46.750Z,23.96
2023-05-06T12:33:13.479Z,23.23
2023-05-06T12:35:41.421Z,23.14
2023-05-06T12:38:10.522Z,23.25
2023-05-06T12:40:37.799Z,23.60
2023-05-06T12:43:04.800Z,22.81
2023-05-06T12:45:31.579Z,22.90
2023-05-06T12:48:02.985Z,23.15
2023-05-06T12:50:37.171Z,23.19
2023-05-06T12:53:05.753Z,24.08
2023-05-06T12:55:33.582Z,24.49
2023-05-06T12:58:00.719Z,24.02
2023-05-06T13:00:27.802Z,23.13
2023-05-06T13:02:54.735Z,24.31
2023-05-06T13:05:21.667Z,24.56
2023-05-06T13:07:48.598Z,23.74
2023-05-06T13:10:15.621Z,24.66
2023-05-06T13:12:42.546Z,23.39
2023-05-06T13:15:09.742Z,23.84
2023-05-06T13:17:36.485Z,24.05
2023-05-06T13:20:05.144Z,22.73
2023-05-06T13:22:40.336Z,23.77
2023-05-06T13:25:14.043Z,23.56
2023-05-06T13:27:40.902Z,23.33
2023-05-06T13:30:09.009Z,23.58
2023-05-06T13:32:35.991Z,23.27
2023-05-06T13:35:02.738Z,22.97
2023-05-06T13:37:29.464Z,22.92
2023-05-06T13:39:56.130Z,22.54
2023-05-06T13:42:22.766Z,22.91
2023-05-06T13:44:49.458Z,23.46
2023-05-06T13:47:16.180Z,23.67
2023-05-06T13:49:42.812Z,22.74
2023-05-06T13:52:09.728Z,23.08
2023-05-06T13:54:36.384Z,22.50
2023-05-06T13:57:03.100Z,22.35
2023-05-06T13:59:29.758Z,22.35
2023-05-06T14:01:57.129Z,21.82
2023-05-06T14:04:24.036Z,22.31
2023-05-06T14:06:50.711Z,22.15
2023-05-06T14:09:18.192Z,22.15
2023-05-06T14:11:44.890Z,21.91
2023-05-06T14:14:11.584Z,22.05
2023-05-06T14:16:38.401Z,22.20
2023-05-06T14:19:05.904Z,22.05
2023-05-06T14:21:32.695Z,22.08
2023-05-06T14:23:59.423Z,22.00
2023-05-06T14:26:26.967Z,22.03
2023-05-06T14:28:53.723Z,22.03
2023-05-06T14:31:20.463Z,21.79
2023-05-06T14:33:47.154Z,21.87
2023-05-06T14:36:18.829Z,21.82
2023-05-06T14:38:45.547Z,21.82
2023-05-06T14:41:12.192Z,21.66
2023-05-06T14:43:39.014Z,21.21
2023-05-06T14:46:05.861Z,21.05
2023-05-06T14:48:32.520Z,20.80
2023-05-06T14:50:59.749Z,20.88
2023-05-06T14:53:26.381Z,20.68
2023-05-06T14:55:53.101Z,20.74
2023-05-06T14:58:19.742Z,20.50
2023-05-06T15:00:46.425Z,20.25
2023-05-06T15:03:13.164Z,20.38
2023-05-06T15:05:39.949Z,20.05
2023-05-06T15:08:06.847Z,20.08
2023-05-06T15:10:33.582Z,19.93
2023-05-06T15:13:00.294Z,20.10
2023-05-06T15:15:27.047Z,19.87
2023-05-06T15:17:53.751Z,19.88
2023-05-06T15:20:20.545Z,19.95
2023-05-06T15:22:47.275Z,20.12
2023-05-06T15:25:26.118Z,20.22
2023-05-06T15:28:00.773Z,20.21
2023-05-06T15:30:27.623Z,20.40
2023-05-06T15:32:54.416Z,20.16
2023-05-06T15:35:21.644Z,19.97
2023-05-06T15:37:48.332Z,20.11
2023-05-06T15:40:15.282Z,19.91
2023-05-06T15:42:41.940Z,19.82
2023-05-06T15:45:09.157Z,19.65
2023-05-06T15:47:35.926Z,19.77
2023-05-06T15:50:06.805Z,19.54
2023-05-06T15:52:37.934Z,19.54
2023-05-06T15:55:05.258Z,19.28
2023-05-06T15:57:31.888Z,19.12
2023-05-06T15:59:58.538Z,18.97
2023-05-06T16:02:27.183Z,19.03
2023-05-06T16:04:54.927Z,18.85
2023-05-06T16:07:21.880Z,18.82
2023-05-06T16:09:49.974Z,18.59
2023-05-06T16:12:16.705Z,18.56
2023-05-06T16:14:44.398Z,18.56
2023-05-06T16:17:11.200Z,18.53
2023-05-06T16:19:37.852Z,18.42
2023-05-06T16:22:04.733Z,18.25
2023-05-06T16:24:34.949Z,18.09
2023-05-06T16:27:01.896Z,17.97
2023-05-06T16:29:28.623Z,17.87
2023-05-06T16:31:55.485Z,17.77
2023-05-06T16:34:22.265Z,17.71
2023-05-06T16:36:49.366Z,17.70
2023-05-06T16:39:16.257Z,17.58
2023-05-06T16:41:43.068Z,17.56
2023-05-06T16:44:09.742Z,17.46
2023-05-06T16:46:36.526Z,17.37
2023-05-06T16:49:04.704Z,17.30
2023-05-06T16:51:32.181Z,17.14
2023-05-06T16:53:58.918Z,17.16
2023-05-06T16:56:30.389Z,17.13
2023-05-06T16:59:07.252Z,17.02
2023-05-06T17:01:34.032Z,16.91
2023-05-06T17:04:00.947Z,16.82
2023-05-06T17:06:31.336Z,16.84
2023-05-06T17:08:58.818Z,16.79
2023-05-06T17:11:25.834Z,16.85
2023-05-06T17:13:53.545Z,16.78
2023-05-06T17:16:21.697Z,16.69
2023-05-06T17:18:48.544Z,16.66
2023-05-06T17:21:16.316Z,16.54
2023-05-06T17:23:43.256Z,16.49
2023-05-06T17:26:10.629Z,16.48
2023-05-06T17:28:37.854Z,16.50
2023-05-06T17:31:04.803Z,16.46
2023-05-06T17:33:31.586Z,16.58
2023-05-06T17:35:58.407Z,16.52
2023-05-06T17:38:25.142Z,16.25
2023-05-06T17:40:52.074Z,15.93
2023-05-06T17:43:19.341Z,15.91
2023-05-06T17:45:46.334Z,15.92
2023-05-06T17:48:13.067Z,16.17
2023-05-06T17:50:40.008Z,16.19
2023-05-06T17:53:06.681Z,16.03
2023-05-06T17:55:33.321Z,16.07
2023-05-06T17:58:00.351Z,16.10
2023-05-06T18:00:27.074Z,16.07
2023-05-06T18:02:54.038Z,16.09
2023-05-06T18:05:21.880Z,16.02
2023-05-06T18:07:48.542Z,15.94
2023-05-06T18:10:15.557Z,16.03
2023-05-06T18:12:42.304Z,15.93
2023-05-06T18:15:09.536Z,15.89
2023-05-06T18:17:36.469Z,15.69
2023-05-06T18:20:03.696Z,15.66
2023-05-06T18:22:30.401Z,15.74
2023-05-06T18:24:57.066Z,15.92
2023-05-06T18:27:25.069Z,15.88
2023-05-06T18:29:51.903Z,15.59
2023-05-06T18:32:18.753Z,15.60
2023-05-06T18:34:45.523Z,15.73
2023-05-06T18:37:12.330Z,15.74
2023-05-06T18:39:43.103Z,15.85
2023-05-06T18:42:10.011Z,15.85
2023-05-06T18:44:37.019Z,15.83
2023-05-06T18:47:03.835Z,15.75
2023-05-06T18:49:31.264Z,15.67
2023-05-06T18:51:58.247Z,15.49
2023-05-06T18:54:25.081Z,15.23
2023-05-06T18:56:52.110Z,15.34
2023-05-06T18:59:19.919Z,15.42
2023-05-06T19:01:47.029Z,15.31
2023-05-06T19:04:13.799Z,15.23
2023-05-06T19:06:40.792Z,15.11
2023-05-06T19:09:08.239Z,15.10
2023-05-06T19:11:35.182Z,14.96
2023-05-06T19:14:01.861Z,14.89
2023-05-06T19:16:28.639Z,14.76
2023-05-06T19:18:55.663Z,14.89
2023-05-06T19:21:22.408Z,14.90
2023-05-06T19:23:49.208Z,14.87
2023-05-06T19:26:15.922Z,14.83
2023-05-06T19:28:42.745Z,14.76
2023-05-06T19:31:10.910Z,14.90
2023-05-06T19:33:38.589Z,14.93
2023-05-06T19:36:06.083Z,15.01
2023-05-06T19:38:32.902Z,15.04
2023-05-06T19:40:59.596Z,15.04
2023-05-06T19:43:26.289Z,14.82
2023-05-06T19:45:53.137Z,14.72
2023-05-06T19:48:19.910Z,14.57
2023-05-06T19:50:46.739Z,14.64
2023-05-06T19:53:13.352Z,14.80
2023-05-06T19:55:40.100Z,14.72
2023-05-06T19:58:06.785Z,14.76
2023-05-06T20:00:33.893Z,14.70
2023-05-06T20:03:00.994Z,14.57
2023-05-06T20:05:32.069Z,14.54
2023-05-06T20:08:02.219Z,14.67
2023-05-06T20:10:29.290Z,14.66
2023-05-06T20:12:57.811Z,14.69
2023-05-06T20:15:24.933Z,14.69
2023-05-06T20:17:51.641Z,14.74
2023-05-06T20:20:19.185Z,14.72
2023-05-06T20:22:46.194Z,14.61
2023-05-06T20:25:16.408Z,14.63
2023-05-06T20:27:44.014Z,14.59
2023-05-06T20:30:11.347Z,14.67
2023-05-06T20:32:39.414Z,14.60
2023-05-06T20:35:06.641Z,14.49
2023-05-06T20:37:36.831Z,14.61
2023-05-06T20:40:05.911Z,14.49
2023-05-06T20:42:32.630Z,14.47
2023-05-06T20:44:59.749Z,14.34
2023-05-06T20:47:26.956Z,14.25
2023-05-06T20:49:54.367Z,14.27
2023-05-06T20:52:21.924Z,14.26
2023-05-06T20:54:49.044Z,14.33
2023-05-06T20:57:17.805Z,14.26
2023-05-06T20:59:44.695Z,14.22
2023-05-06T21:02:11.615Z,14.23
2023-05-06T21:04:38.803Z,14.25
2023-05-06T21:07:05.632Z,14.30
2023-05-06T21:09:32.464Z,14.29
2023-05-06T21:11:59.534Z,14.33
2023-05-06T21:14:26.820Z,14.28
2023-05-06T21:16:53.923Z,14.32
2023-05-06T21:19:21.058Z,14.30
2023-05-06T21:21:47.798Z,14.29
2023-05-06T21:24:14.504Z,14.36
2023-05-06T21:26:41.212Z,14.32
2023-05-06T21:29:07.993Z,14.24
2023-05-06T21:31:34.820Z,14.26
2023-05-06T21:34:01.561Z,14.14
2023-05-06T21:36:28.234Z,14.11
2023-05-06T21:39:08.936Z,14.14
2023-05-06T21:41:36.816Z,14.17
2023-05-06T21:44:05.119Z,14.18
2023-05-06T21:46:32.688Z,14.11
2023-05-06T21:48:59.988Z,14.08
2023-05-06T21:51:28.219Z,14.20
2023-05-06T21:53:55.106Z,14.17
2023-05-06T21:56:22.267Z,14.11
2023-05-06T21:58:49.098Z,14.07
2023-05-06T22:01:16.204Z,14.11
2023-05-06T22:03:45.644Z,14.15
2023-05-06T22:06:12.990Z,14.12
2023-05-06T22:08:40.642Z,14.15
2023-05-06T22:11:07.415Z,14.16
2023-05-06T22:13:34.179Z,14.20
2023-05-06T22:16:00.938Z,14.20
2023-05-06T22:18:30.123Z,14.14
2023-05-06T22:20:58.017Z,14.18
2023-05-06T22:23:25.589Z,14.17
2023-05-06T22:25:52.263Z,14.12
2023-05-06T22:28:19.905Z,14.15
2023-05-06T22:30:46.648Z,14.12
2023-05-06T22:33:13.308Z,14.13
2023-05-06T22:35:40.056Z,14.13
2023-05-06T22:38:06.774Z,14.13
2023-05-06T22:40:33.506Z,14.15
2023-05-06T22:43:00.399Z,14.15
2023-05-06T22:45:27.192Z,14.11
2023-05-06T22:47:54.074Z,14.07
2023-05-06T22:50:20.912Z,14.16
2023-05-06T22:52:47.701Z,14.11
2023-05-06T22:55:15.212Z,14.10
2023-05-06T22:57:42.083Z,14.09
2023-05-06T23:00:12.549Z,14.12
2023-05-06T23:02:39.956Z,14.08
2023-05-06T23:05:06.939Z,14.10
2023-05-06T23:07:33.649Z,14.09
2023-05-06T23:10:00.337Z,13.99
2023-05-06T23:12:28.241Z,13.97
2023-05-06T23:14:54.918Z,14.03
2023-05-06T23:17:21.619Z,14.00
2023-05-06T23:19:48.338Z,14.00
2023-05-06T23:22:15.006Z,14.08
2023-05-06T23:24:42.385Z,14.14
2023-05-06T23:27:09.118Z,14.18
2023-05-06T23:29:35.934Z,14.21
2023-05-06T23:32:03.071Z,14.21
2023-05-06T23:34:29.778Z,14.11
2023-05-06T23:36:56.789Z,14.15
2023-05-06T23:39:23.570Z,14.21
2023-05-06T23:41:50.218Z,14.23
2023-05-06T23:44:17.016Z,14.21
2023-05-06T23:46:43.728Z,14.17
2023-05-06T23:49:10.488Z,14.10
2023-05-06T23:51:37.589Z,14.16
2023-05-06T23:54:04.472Z,14.18
2023-05-06T23:56:31.348Z,14.19
2023-05-06T23:58:57.991Z,14.17
